createdAt,value
2018-09-27T00:01:57.020Z,3.00
2018-09-27T00:07:00.571Z,3.63
2018-09-27T00:12:04.229Z,3.70
2018-09-27T00:17:07.799Z,3.57
2018-09-27T00:22:11.373Z,3.77
2018-09-27T00:27:14.896Z,3.57
2018-09-27T00:32:18.435Z,4.40
2018-09-27T00:37:22.033Z,4.17
2018-09-27T00:42:25.598Z,4.73
2018-09-27T00:47:29.171Z,4.17
2018-09-27T00:52:32.766Z,5.00
2018-09-27T00:57:36.296Z,4.03
2018-09-27T01:02:39.833Z,4.43
2018-09-27T01:07:43.337Z,4.87
2018-09-27T01:12:46.969Z,5.03
2018-09-27T01:17:50.481Z,4.60
2018-09-27T01:22:54.015Z,5.37
2018-09-27T01:27:57.619Z,4.60
2018-09-27T01:33:03.280Z,4.63
2018-09-27T01:38:07.070Z,4.33
2018-09-27T01:43:10.735Z,5.03
2018-09-27T01:48:14.320Z,5.93
2018-09-27T01:53:17.923Z,4.53
2018-09-27T01:58:21.606Z,4.83
2018-09-27T02:03:25.193Z,3.73
2018-09-27T02:08:28.852Z,5.27
2018-09-27T02:13:32.518Z,4.33
2018-09-27T02:18:36.107Z,5.17
2018-09-27T02:23:39.714Z,4.17
2018-09-27T02:28:43.233Z,4.47
2018-09-27T02:33:46.903Z,4.03
2018-09-27T02:38:50.540Z,4.63
2018-09-27T02:43:54.178Z,4.63
2018-09-27T02:48:57.854Z,4.27
2018-09-27T02:54:01.535Z,4.43
2018-09-27T02:59:05.071Z,3.97
2018-09-27T03:04:08.904Z,4.57
2018-09-27T03:09:13.417Z,4.00
2018-09-27T03:14:16.988Z,5.20
2018-09-27T03:19:20.532Z,4.37
2018-09-27T03:24:24.184Z,3.93
2018-09-27T03:29:27.780Z,3.80
2018-09-27T03:34:31.432Z,4.00
2018-09-27T03:39:35.038Z,3.50
2018-09-27T03:44:38.701Z,3.70
2018-09-27T03:49:42.299Z,4.70
2018-09-27T03:54:45.929Z,3.97
2018-09-27T03:59:49.560Z,3.67
2018-09-27T04:04:53.211Z,3.70
2018-09-27T04:09:56.783Z,3.77
2018-09-27T04:15:00.374Z,3.90
2018-09-27T04:20:03.938Z,3.63
2018-09-27T04:25:07.583Z,4.03
2018-09-27T04:30:11.558Z,2.67
2018-09-27T04:35:15.187Z,3.30
2018-09-27T04:40:29.800Z,3.40
2018-09-27T04:45:33.393Z,4.03
2018-09-27T04:50:36.954Z,4.77
2018-09-27T04:55:40.547Z,3.93
2018-09-27T05:00:44.386Z,2.90
2018-09-27T05:05:47.955Z,3.40
2018-09-27T05:10:51.583Z,3.70
2018-09-27T05:15:55.339Z,3.60
2018-09-27T05:20:58.893Z,4.23
2018-09-27T05:26:02.617Z,4.17
2018-09-27T05:31:06.217Z,4.23
2018-09-27T05:36:09.798Z,4.63
2018-09-27T05:41:13.418Z,4.90
2018-09-27T05:46:17.035Z,4.73
2018-09-27T05:51:20.578Z,4.00
2018-09-27T05:56:24.151Z,3.70
2018-09-27T06:01:27.816Z,4.43
2018-09-27T06:06:31.410Z,4.43
2018-09-27T06:11:35.077Z,4.27
2018-09-27T06:16:39.849Z,5.20
2018-09-27T06:21:43.415Z,4.43
2018-09-27T06:26:47.060Z,3.87
2018-09-27T06:31:50.720Z,4.93
2018-09-27T06:36:54.366Z,4.90
2018-09-27T06:41:57.990Z,4.53
2018-09-27T06:47:01.507Z,5.30
2018-09-27T06:52:05.097Z,4.93
2018-09-27T06:57:08.691Z,5.83
2018-09-27T07:02:13.854Z,4.90
2018-09-27T07:07:17.596Z,4.57
2018-09-27T07:12:21.295Z,4.87
2018-09-27T07:17:24.762Z,5.23
2018-09-27T07:22:28.392Z,5.47
2018-09-27T07:27:31.984Z,4.83
2018-09-27T07:32:35.628Z,5.67
2018-09-27T07:37:39.240Z,5.13
2018-09-27T07:42:42.900Z,5.93
2018-09-27T07:47:46.520Z,5.47
2018-09-27T07:52:50.054Z,6.43
2018-09-27T07:57:53.692Z,6.43
2018-09-27T08:02:57.355Z,6.40
2018-09-27T08:08:00.773Z,7.20
2018-09-27T08:13:04.354Z,7.67
2018-09-27T08:18:08.040Z,7.27
2018-09-27T08:23:11.834Z,7.87
2018-09-27T08:28:15.457Z,8.40
2018-09-27T08:33:19.112Z,7.93
2018-09-27T08:38:22.693Z,8.20
2018-09-27T08:43:26.382Z,9.47
2018-09-27T08:48:29.986Z,9.37
2018-09-27T08:53:33.684Z,10.43
2018-09-27T08:58:37.309Z,10.53
2018-09-27T09:03:43.640Z,9.03
2018-09-27T09:08:48.618Z,8.83
2018-09-27T09:13:52.751Z,9.20
2018-09-27T09:18:56.727Z,12.07
2018-09-27T09:24:06.294Z,10.77
2018-09-27T09:29:10.929Z,10.40
2018-09-27T09:34:14.607Z,9.60
2018-09-27T09:39:18.433Z,9.70
2018-09-27T09:44:22.084Z,9.43
2018-09-27T09:49:25.749Z,8.23
2018-09-27T09:54:29.432Z,8.07
2018-09-27T09:59:32.977Z,7.57
2018-09-27T10:04:36.611Z,8.50
2018-09-27T10:09:40.306Z,6.83
2018-09-27T10:14:45.304Z,5.33
2018-09-27T10:19:50.326Z,6.63
2018-09-27T10:24:54.114Z,6.03
2018-09-27T10:30:02.349Z,5.40
2018-09-27T10:35:06.906Z,5.33
2018-09-27T10:40:10.638Z,7.43
2018-09-27T10:45:14.284Z,5.00
2018-09-27T10:50:17.883Z,4.30
2018-09-27T10:55:21.595Z,4.60
2018-09-27T11:00:27.225Z,4.27
2018-09-27T11:05:30.873Z,4.20
2018-09-27T11:10:39.318Z,5.03
2018-09-27T11:15:48.926Z,4.57
2018-09-27T11:20:52.492Z,4.83
2018-09-27T11:25:56.144Z,4.40
2018-09-27T11:31:04.980Z,4.60
2018-09-27T11:36:08.620Z,3.00
2018-09-27T11:41:12.352Z,4.17
2018-09-27T11:46:15.963Z,4.67
2018-09-27T11:51:19.697Z,3.67
2018-09-27T11:56:23.218Z,4.43
2018-09-27T12:01:27.016Z,4.37
2018-09-27T12:06:30.720Z,4.47
2018-09-27T12:11:35.046Z,3.57
2018-09-27T12:16:38.758Z,4.10
2018-09-27T12:21:42.627Z,4.53
2018-09-27T12:26:46.508Z,3.90
2018-09-27T12:31:54.966Z,3.17
2018-09-27T12:36:58.640Z,3.17
2018-09-27T12:42:02.559Z,2.60
2018-09-27T12:47:06.228Z,2.40
2018-09-27T12:52:10.408Z,1.80
2018-09-27T12:57:13.755Z,2.33
2018-09-27T13:02:17.590Z,1.93
2018-09-27T13:07:21.489Z,1.37
2018-09-27T13:12:25.563Z,1.50
2018-09-27T13:17:29.280Z,1.37
2018-09-27T13:22:32.801Z,2.20
2018-09-27T13:27:36.470Z,1.37
2018-09-27T13:32:40.349Z,1.83
2018-09-27T13:37:44.018Z,1.47
2018-09-27T13:42:47.709Z,1.73
2018-09-27T13:47:51.424Z,1.77
2018-09-27T13:52:55.071Z,2.57
2018-09-27T13:57:58.629Z,3.00
2018-09-27T14:03:02.304Z,2.53
2018-09-27T14:08:05.921Z,2.27
2018-09-27T14:13:09.634Z,3.20
2018-09-27T14:18:13.189Z,3.30
2018-09-27T14:23:16.841Z,3.70
2018-09-27T14:28:20.464Z,3.30
2018-09-27T14:33:25.365Z,2.80
2018-09-27T14:38:29.134Z,2.67
2018-09-27T14:43:32.758Z,2.43
2018-09-27T14:48:36.523Z,2.23
2018-09-27T14:53:40.192Z,2.57
2018-09-27T14:58:43.957Z,2.90
2018-09-27T15:03:47.621Z,2.70
2018-09-27T15:08:51.274Z,2.93
2018-09-27T15:13:56.152Z,3.07
2018-09-27T15:19:00.075Z,3.27
2018-09-27T15:24:03.891Z,4.20
2018-09-27T15:29:07.531Z,3.93
2018-09-27T15:34:11.470Z,2.97
2018-09-27T15:39:15.530Z,2.80
2018-09-27T15:44:19.228Z,2.80
2018-09-27T15:49:22.903Z,3.33
2018-09-27T15:54:26.611Z,3.07
2018-09-27T15:59:30.313Z,2.47
2018-09-27T16:04:33.963Z,2.53
2018-09-27T16:09:37.615Z,2.57
2018-09-27T16:14:41.258Z,3.40
2018-09-27T16:19:44.862Z,3.50
2018-09-27T16:24:48.430Z,2.37
2018-09-27T16:29:55.299Z,2.80
2018-09-27T16:34:59.171Z,2.97
2018-09-27T16:40:02.798Z,1.87
2018-09-27T16:45:06.706Z,1.90
2018-09-27T16:50:10.324Z,2.10
2018-09-27T16:55:14.035Z,5.23
2018-09-27T17:00:28.787Z,2.40
2018-09-27T17:05:32.391Z,4.37
2018-09-27T17:10:36.020Z,3.03
2018-09-27T17:15:39.617Z,3.30
2018-09-27T17:20:43.209Z,2.35
2018-09-27T17:25:46.749Z,2.37
2018-09-27T17:30:50.715Z,2.33
2018-09-27T17:35:54.330Z,3.43
2018-09-27T17:40:57.935Z,2.50
2018-09-27T17:46:03.281Z,2.20
2018-09-27T17:51:06.893Z,2.23
2018-09-27T17:56:11.295Z,2.63
2018-09-27T18:01:14.997Z,3.30
2018-09-27T18:06:18.631Z,2.80
2018-09-27T18:11:22.218Z,2.80
2018-09-27T18:16:25.938Z,2.20
2018-09-27T18:21:29.473Z,2.37
2018-09-27T18:26:33.141Z,2.00
2018-09-27T18:31:36.778Z,2.13
2018-09-27T18:36:40.383Z,1.90
2018-09-27T18:41:44.098Z,3.53
2018-09-27T18:46:47.729Z,3.13
2018-09-27T18:51:51.289Z,2.63
2018-09-27T18:56:54.943Z,2.80
2018-09-27T19:01:58.631Z,2.70
2018-09-27T19:07:02.359Z,2.70
2018-09-27T19:12:06.105Z,2.77
2018-09-27T19:17:09.768Z,2.37
2018-09-27T19:22:20.096Z,2.53
2018-09-27T19:27:23.703Z,2.70
2018-09-27T19:32:27.231Z,2.67
2018-09-27T19:37:30.828Z,2.80
2018-09-27T19:42:34.448Z,3.03
2018-09-27T19:47:38.096Z,2.90
2018-09-27T19:52:42.025Z,2.53
2018-09-27T19:57:45.656Z,3.07
2018-09-27T20:02:50.620Z,3.37
2018-09-27T20:07:54.421Z,3.60
2018-09-27T20:12:58.423Z,2.90
2018-09-27T20:18:02.419Z,2.97
2018-09-27T20:23:06.100Z,2.87
2018-09-27T20:28:09.756Z,4.07
2018-09-27T20:33:14.087Z,4.37
2018-09-27T20:38:17.695Z,3.10
2018-09-27T20:43:21.503Z,4.87
2018-09-27T20:48:25.097Z,4.10
2018-09-27T20:53:28.656Z,4.10
2018-09-27T20:58:32.477Z,4.00
2018-09-27T21:03:36.150Z,3.40
2018-09-27T21:08:39.703Z,3.80
2018-09-27T21:13:43.369Z,4.40
2018-09-27T21:18:46.851Z,3.97
2018-09-27T21:23:50.584Z,4.10
2018-09-27T21:28:54.265Z,3.30
2018-09-27T21:33:57.801Z,2.97
2018-09-27T21:39:01.376Z,3.60
2018-09-27T21:44:05.084Z,4.37
2018-09-27T21:49:08.637Z,5.43
2018-09-27T21:54:12.228Z,4.70
2018-09-27T21:59:20.415Z,4.40
2018-09-27T22:04:24.486Z,4.40
2018-09-27T22:09:28.234Z,4.57
2018-09-27T22:14:32.060Z,4.80
2018-09-27T22:19:35.630Z,5.93
2018-09-27T22:24:39.185Z,5.37
2018-09-27T22:29:42.981Z,6.07
2018-09-27T22:34:46.595Z,6.27
2018-09-27T22:39:50.126Z,6.17
2018-09-27T22:44:55.992Z,5.77
2018-09-27T22:49:59.678Z,5.73
2018-09-27T22:55:03.240Z,5.80
2018-09-27T23:00:09.144Z,4.90
2018-09-27T23:05:12.925Z,5.43
2018-09-27T23:10:16.532Z,5.67
2018-09-27T23:15:20.262Z,5.37
2018-09-27T23:20:23.829Z,5.63
2018-09-27T23:25:27.575Z,4.90
2018-09-27T23:30:31.361Z,5.13
2018-09-27T23:35:34.883Z,5.60
2018-09-27T23:40:38.480Z,6.30
2018-09-27T23:45:42.013Z,6.20
2018-09-27T23:50:45.586Z,6.40
2018-09-27T23:55:49.188Z,7.00
